sensor_id;sensor_type;location;lat;lon;timestamp;temperature;humidity
65470;DHT22;52067;50.710;14.492;2023-03-13T00:00:56;3.58;90.01
65470;DHT22;52067;50.710;14.492;2023-03-13T00:03:22;3.63;89.83
65470;DHT22;52067;50.710;14.492;2023-03-13T00:05:47;3.59;89.87
65470;DHT22;52067;50.710;14.492;2023-03-13T00:08:13;3.69;89.82
65470;DHT22;52067;50.710;14.492;2023-03-13T00:10:39;3.73;89.55
65470;DHT22;52067;50.710;14.492;2023-03-13T00:13:06;3.79;89.39
65470;DHT22;52067;50.710;14.492;2023-03-13T00:15:32;3.97;89.19
65470;DHT22;52067;50.710;14.492;2023-03-13T00:17:57;3.73;89.33
65470;DHT22;52067;50.710;14.492;2023-03-13T00:20:23;3.48;89.91
65470;DHT22;52067;50.710;14.492;2023-03-13T00:22:48;3.56;90.15
65470;DHT22;52067;50.710;14.492;2023-03-13T00:25:14;3.48;90.16
65470;DHT22;52067;50.710;14.492;2023-03-13T00:27:39;3.45;90.21
65470;DHT22;52067;50.710;14.492;2023-03-13T00:30:05;3.53;90.30
65470;DHT22;52067;50.710;14.492;2023-03-13T00:32:30;3.46;90.37
65470;DHT22;52067;50.710;14.492;2023-03-13T00:34:56;3.59;90.28
65470;DHT22;52067;50.710;14.492;2023-03-13T00:37:21;3.77;90.02
65470;DHT22;52067;50.710;14.492;2023-03-13T00:39:47;3.93;89.69
65470;DHT22;52067;50.710;14.492;2023-03-13T00:42:12;3.90;89.49
65470;DHT22;52067;50.710;14.492;2023-03-13T00:44:37;3.70;90.17
65470;DHT22;52067;50.710;14.492;2023-03-13T00:47:03;3.66;90.21
65470;DHT22;52067;50.710;14.492;2023-03-13T00:49:30;3.79;90.09
65470;DHT22;52067;50.710;14.492;2023-03-13T00:51:55;3.73;89.98
65470;DHT22;52067;50.710;14.492;2023-03-13T00:54:21;3.84;89.93
65470;DHT22;52067;50.710;14.492;2023-03-13T00:56:46;3.72;89.90
65470;DHT22;52067;50.710;14.492;2023-03-13T00:59:13;3.79;90.20
65470;DHT22;52067;50.710;14.492;2023-03-13T01:01:38;3.79;90.04
65470;DHT22;52067;50.710;14.492;2023-03-13T01:04:09;3.80;89.93
65470;DHT22;52067;50.710;14.492;2023-03-13T01:06:37;3.80;89.88
65470;DHT22;52067;50.710;14.492;2023-03-13T01:09:05;3.77;89.96
65470;DHT22;52067;50.710;14.492;2023-03-13T01:11:34;3.76;90.13
65470;DHT22;52067;50.710;14.492;2023-03-13T01:14:06;3.84;90.18
65470;DHT22;52067;50.710;14.492;2023-03-13T01:16:32;3.98;89.86
65470;DHT22;52067;50.710;14.492;2023-03-13T01:19:00;4.00;89.62
65470;DHT22;52067;50.710;14.492;2023-03-13T01:21:27;4.03;89.45
65470;DHT22;52067;50.710;14.492;2023-03-13T01:23:53;4.10;89.40
65470;DHT22;52067;50.710;14.492;2023-03-13T01:26:19;4.15;89.22
65470;DHT22;52067;50.710;14.492;2023-03-13T01:28:46;4.04;89.09
65470;DHT22;52067;50.710;14.492;2023-03-13T01:31:29;4.05;89.26
65470;DHT22;52067;50.710;14.492;2023-03-13T01:34:00;4.20;89.02
65470;DHT22;52067;50.710;14.492;2023-03-13T01:36:26;4.35;88.78
65470;DHT22;52067;50.710;14.492;2023-03-13T01:38:54;4.25;88.72
65470;DHT22;52067;50.710;14.492;2023-03-13T01:41:21;4.30;88.62
65470;DHT22;52067;50.710;14.492;2023-03-13T01:43:47;4.20;88.59
65470;DHT22;52067;50.710;14.492;2023-03-13T01:53:49;4.32;88.26
65470;DHT22;52067;50.710;14.492;2023-03-13T01:56:30;4.42;87.89
65470;DHT22;52067;50.710;14.492;2023-03-13T01:58:58;4.25;88.13
65470;DHT22;52067;50.710;14.492;2023-03-13T02:01:24;4.07;88.37
65470;DHT22;52067;50.710;14.492;2023-03-13T02:03:50;3.89;89.15
65470;DHT22;52067;50.710;14.492;2023-03-13T02:06:16;4.11;88.86
65470;DHT22;52067;50.710;14.492;2023-03-13T02:08:48;3.98;88.30
65470;DHT22;52067;50.710;14.492;2023-03-13T02:13:42;3.65;89.07
65470;DHT22;52067;50.710;14.492;2023-03-13T02:16:08;3.65;89.54
65470;DHT22;52067;50.710;14.492;2023-03-13T02:18:35;3.65;89.62
65470;DHT22;52067;50.710;14.492;2023-03-13T02:21:09;3.76;89.36
65470;DHT22;52067;50.710;14.492;2023-03-13T02:23:49;3.82;89.26
65470;DHT22;52067;50.710;14.492;2023-03-13T02:26:16;3.70;89.24
65470;DHT22;52067;50.710;14.492;2023-03-13T02:28:42;3.87;89.27
65470;DHT22;52067;50.710;14.492;2023-03-13T02:31:07;3.95;89.10
65470;DHT22;52067;50.710;14.492;2023-03-13T02:33:36;4.05;88.74
65470;DHT22;52067;50.710;14.492;2023-03-13T02:36:04;4.01;88.63
65470;DHT22;52067;50.710;14.492;2023-03-13T02:38:33;4.13;88.63
65470;DHT22;52067;50.710;14.492;2023-03-13T02:41:00;4.11;88.25
65470;DHT22;52067;50.710;14.492;2023-03-13T02:43:34;4.07;88.24
65470;DHT22;52067;50.710;14.492;2023-03-13T02:48:39;3.77;88.93
65470;DHT22;52067;50.710;14.492;2023-03-13T02:51:29;3.59;89.57
65470;DHT22;52067;50.710;14.492;2023-03-13T02:53:59;3.82;89.58
65470;DHT22;52067;50.710;14.492;2023-03-13T02:56:26;3.48;89.49
65470;DHT22;52067;50.710;14.492;2023-03-13T02:58:52;3.69;89.58
65470;DHT22;52067;50.710;14.492;2023-03-13T03:01:17;3.67;89.66
65470;DHT22;52067;50.710;14.492;2023-03-13T03:03:43;3.46;89.95
65470;DHT22;52067;50.710;14.492;2023-03-13T03:06:08;3.45;90.01
65470;DHT22;52067;50.710;14.492;2023-03-13T03:08:34;3.35;90.31
65470;DHT22;52067;50.710;14.492;2023-03-13T03:11:00;3.32;90.61
65470;DHT22;52067;50.710;14.492;2023-03-13T03:13:26;3.31;90.35
65470;DHT22;52067;50.710;14.492;2023-03-13T03:15:52;3.21;90.32
65470;DHT22;52067;50.710;14.492;2023-03-13T03:18:18;3.11;90.35
65470;DHT22;52067;50.710;14.492;2023-03-13T03:20:43;3.04;90.33
65470;DHT22;52067;50.710;14.492;2023-03-13T03:23:08;3.12;90.88
65470;DHT22;52067;50.710;14.492;2023-03-13T03:25:34;3.04;90.66
65470;DHT22;52067;50.710;14.492;2023-03-13T03:27:59;3.12;90.67
65470;DHT22;52067;50.710;14.492;2023-03-13T03:30:24;3.07;90.41
65470;DHT22;52067;50.710;14.492;2023-03-13T03:32:50;2.73;90.69
65470;DHT22;52067;50.710;14.492;2023-03-13T03:35:15;2.95;90.87
65470;DHT22;52067;50.710;14.492;2023-03-13T03:37:41;3.00;90.70
65470;DHT22;52067;50.710;14.492;2023-03-13T03:40:06;3.09;90.51
65470;DHT22;52067;50.710;14.492;2023-03-13T03:42:32;2.84;90.14
65470;DHT22;52067;50.710;14.492;2023-03-13T03:44:58;3.07;90.20
65470;DHT22;52067;50.710;14.492;2023-03-13T03:47:23;3.08;90.28
65470;DHT22;52067;50.710;14.492;2023-03-13T03:49:49;3.21;90.01
65470;DHT22;52067;50.710;14.492;2023-03-13T03:52:14;3.21;89.42
65470;DHT22;52067;50.710;14.492;2023-03-13T03:54:40;3.04;89.23
65470;DHT22;52067;50.710;14.492;2023-03-13T03:57:05;3.11;89.18
65470;DHT22;52067;50.710;14.492;2023-03-13T03:59:30;2.98;89.16
65470;DHT22;52067;50.710;14.492;2023-03-13T04:01:56;3.15;89.05
65470;DHT22;52067;50.710;14.492;2023-03-13T04:04:21;3.14;88.87
65470;DHT22;52067;50.710;14.492;2023-03-13T04:06:47;3.00;89.56
65470;DHT22;52067;50.710;14.492;2023-03-13T04:09:12;2.95;89.16
65470;DHT22;52067;50.710;14.492;2023-03-13T04:11:37;2.60;89.21
65470;DHT22;52067;50.710;14.492;2023-03-13T04:14:03;2.61;90.01
65470;DHT22;52067;50.710;14.492;2023-03-13T04:16:28;2.87;89.81
65470;DHT22;52067;50.710;14.492;2023-03-13T04:18:53;2.80;90.04
65470;DHT22;52067;50.710;14.492;2023-03-13T04:21:19;2.83;90.06
65470;DHT22;52067;50.710;14.492;2023-03-13T04:23:44;2.91;89.98
65470;DHT22;52067;50.710;14.492;2023-03-13T04:26:10;2.77;89.50
65470;DHT22;52067;50.710;14.492;2023-03-13T04:28:35;2.67;90.13
65470;DHT22;52067;50.710;14.492;2023-03-13T04:31:00;2.80;90.13
65470;DHT22;52067;50.710;14.492;2023-03-13T04:33:26;3.00;89.79
65470;DHT22;52067;50.710;14.492;2023-03-13T04:35:51;2.98;89.60
65470;DHT22;52067;50.710;14.492;2023-03-13T04:38:17;2.86;89.84
65470;DHT22;52067;50.710;14.492;2023-03-13T04:40:42;2.77;90.53
65470;DHT22;52067;50.710;14.492;2023-03-13T04:43:08;2.70;90.39
65470;DHT22;52067;50.710;14.492;2023-03-13T04:45:33;2.56;90.35
65470;DHT22;52067;50.710;14.492;2023-03-13T04:47:59;2.63;90.47
65470;DHT22;52067;50.710;14.492;2023-03-13T04:50:24;2.86;90.27
65470;DHT22;52067;50.710;14.492;2023-03-13T04:52:50;2.90;89.83
65470;DHT22;52067;50.710;14.492;2023-03-13T04:55:16;2.81;89.51
65470;DHT22;52067;50.710;14.492;2023-03-13T04:57:41;2.79;89.42
65470;DHT22;52067;50.710;14.492;2023-03-13T05:00:07;2.79;90.15
65470;DHT22;52067;50.710;14.492;2023-03-13T05:02:34;2.63;90.48
65470;DHT22;52067;50.710;14.492;2023-03-13T05:05:00;2.63;91.00
65470;DHT22;52067;50.710;14.492;2023-03-13T05:07:25;2.56;90.87
65470;DHT22;52067;50.710;14.492;2023-03-13T05:09:51;2.79;90.85
65470;DHT22;52067;50.710;14.492;2023-03-13T05:12:16;2.79;90.77
65470;DHT22;52067;50.710;14.492;2023-03-13T05:14:41;2.95;90.97
65470;DHT22;52067;50.710;14.492;2023-03-13T05:17:07;3.08;91.05
65470;DHT22;52067;50.710;14.492;2023-03-13T05:19:32;2.83;90.73
65470;DHT22;52067;50.710;14.492;2023-03-13T05:21:57;2.81;91.15
65470;DHT22;52067;50.710;14.492;2023-03-13T05:24:23;2.80;91.20
65470;DHT22;52067;50.710;14.492;2023-03-13T05:26:48;2.70;91.48
65470;DHT22;52067;50.710;14.492;2023-03-13T05:29:14;2.87;91.46
65470;DHT22;52067;50.710;14.492;2023-03-13T05:31:39;3.00;91.34
65470;DHT22;52067;50.710;14.492;2023-03-13T05:34:04;2.97;91.21
65470;DHT22;52067;50.710;14.492;2023-03-13T05:36:30;2.98;91.09
65470;DHT22;52067;50.710;14.492;2023-03-13T05:38:55;3.22;91.05
65470;DHT22;52067;50.710;14.492;2023-03-13T05:41:20;3.38;90.80
65470;DHT22;52067;50.710;14.492;2023-03-13T05:43:46;3.51;90.53
65470;DHT22;52067;50.710;14.492;2023-03-13T05:46:11;3.49;90.19
65470;DHT22;52067;50.710;14.492;2023-03-13T05:48:37;3.42;90.25
65470;DHT22;52067;50.710;14.492;2023-03-13T05:51:02;3.40;90.36
65470;DHT22;52067;50.710;14.492;2023-03-13T05:53:27;3.40;90.44
65470;DHT22;52067;50.710;14.492;2023-03-13T05:55:53;3.31;90.81
65470;DHT22;52067;50.710;14.492;2023-03-13T05:58:18;3.40;90.78
65470;DHT22;52067;50.710;14.492;2023-03-13T06:00:44;3.31;90.60
65470;DHT22;52067;50.710;14.492;2023-03-13T06:03:09;3.18;91.07
65470;DHT22;52067;50.710;14.492;2023-03-13T06:05:34;3.26;91.72
65470;DHT22;52067;50.710;14.492;2023-03-13T06:08:00;3.45;91.69
65470;DHT22;52067;50.710;14.492;2023-03-13T06:10:27;3.36;91.43
65470;DHT22;52067;50.710;14.492;2023-03-13T06:12:55;3.72;91.38
65470;DHT22;52067;50.710;14.492;2023-03-13T06:15:21;3.97;91.16
65470;DHT22;52067;50.710;14.492;2023-03-13T06:17:47;3.86;90.91
65470;DHT22;52067;50.710;14.492;2023-03-13T06:20:14;4.03;90.71
65470;DHT22;52067;50.710;14.492;2023-03-13T06:22:40;4.01;90.69
65470;DHT22;52067;50.710;14.492;2023-03-13T06:25:06;4.28;90.76
65470;DHT22;52067;50.710;14.492;2023-03-13T06:27:31;4.45;90.64
65470;DHT22;52067;50.710;14.492;2023-03-13T06:29:57;4.13;90.65
65470;DHT22;52067;50.710;14.492;2023-03-13T06:32:22;4.20;91.00
65470;DHT22;52067;50.710;14.492;2023-03-13T06:34:48;4.34;90.90
65470;DHT22;52067;50.710;14.492;2023-03-13T06:37:13;4.61;90.76
65470;DHT22;52067;50.710;14.492;2023-03-13T06:39:39;4.62;90.47
65470;DHT22;52067;50.710;14.492;2023-03-13T06:42:04;4.58;90.57
65470;DHT22;52067;50.710;14.492;2023-03-13T06:44:30;4.56;90.58
65470;DHT22;52067;50.710;14.492;2023-03-13T06:46:55;4.68;90.51
65470;DHT22;52067;50.710;14.492;2023-03-13T06:49:21;4.71;90.31
65470;DHT22;52067;50.710;14.492;2023-03-13T06:51:46;4.84;90.25
65470;DHT22;52067;50.710;14.492;2023-03-13T06:54:11;5.00;90.26
65470;DHT22;52067;50.710;14.492;2023-03-13T06:56:37;5.07;90.22
65470;DHT22;52067;50.710;14.492;2023-03-13T06:59:02;4.90;90.21
65470;DHT22;52067;50.710;14.492;2023-03-13T07:01:27;5.06;90.17
65470;DHT22;52067;50.710;14.492;2023-03-13T07:03:53;5.30;89.98
65470;DHT22;52067;50.710;14.492;2023-03-13T07:06:18;5.26;89.86
65470;DHT22;52067;50.710;14.492;2023-03-13T07:08:44;5.37;89.32
65470;DHT22;52067;50.710;14.492;2023-03-13T07:11:11;5.44;89.22
65470;DHT22;52067;50.710;14.492;2023-03-13T07:13:37;5.69;89.24
65470;DHT22;52067;50.710;14.492;2023-03-13T07:16:08;5.73;89.02
65470;DHT22;52067;50.710;14.492;2023-03-13T07:18:34;5.62;89.34
65470;DHT22;52067;50.710;14.492;2023-03-13T07:21:01;5.69;89.70
65470;DHT22;52067;50.710;14.492;2023-03-13T07:23:29;5.82;89.38
65470;DHT22;52067;50.710;14.492;2023-03-13T07:25:57;6.13;89.20
65470;DHT22;52067;50.710;14.492;2023-03-13T07:28:23;6.37;88.65
65470;DHT22;52067;50.710;14.492;2023-03-13T07:30:49;6.51;88.30
65470;DHT22;52067;50.710;14.492;2023-03-13T07:33:15;6.58;88.23
65470;DHT22;52067;50.710;14.492;2023-03-13T07:35:47;6.72;88.09
65470;DHT22;52067;50.710;14.492;2023-03-13T07:38:12;6.71;87.61
65470;DHT22;52067;50.710;14.492;2023-03-13T07:40:37;6.65;87.82
65470;DHT22;52067;50.710;14.492;2023-03-13T07:43:03;6.71;88.02
65470;DHT22;52067;50.710;14.492;2023-03-13T07:45:28;6.89;88.11
65470;DHT22;52067;50.710;14.492;2023-03-13T07:47:54;7.15;87.79
65470;DHT22;52067;50.710;14.492;2023-03-13T07:50:19;7.06;86.82
65470;DHT22;52067;50.710;14.492;2023-03-13T07:52:44;7.03;87.42
65470;DHT22;52067;50.710;14.492;2023-03-13T07:55:10;7.33;87.00
65470;DHT22;52067;50.710;14.492;2023-03-13T07:57:35;7.18;87.03
65470;DHT22;52067;50.710;14.492;2023-03-13T08:00:00;7.18;88.09
65470;DHT22;52067;50.710;14.492;2023-03-13T08:02:26;7.51;87.15
65470;DHT22;52067;50.710;14.492;2023-03-13T08:04:51;7.40;87.13
65470;DHT22;52067;50.710;14.492;2023-03-13T08:07:17;7.57;87.68
65470;DHT22;52067;50.710;14.492;2023-03-13T08:09:42;7.78;86.83
65470;DHT22;52067;50.710;14.492;2023-03-13T08:12:08;8.01;86.61
65470;DHT22;52067;50.710;14.492;2023-03-13T08:14:33;8.24;85.29
65470;DHT22;52067;50.710;14.492;2023-03-13T08:16:59;8.25;84.28
65470;DHT22;52067;50.710;14.492;2023-03-13T08:19:24;8.29;83.97
65470;DHT22;52067;50.710;14.492;2023-03-13T08:21:49;8.19;84.18
65470;DHT22;52067;50.710;14.492;2023-03-13T08:24:15;8.21;84.56
65470;DHT22;52067;50.710;14.492;2023-03-13T08:26:41;8.22;84.27
65470;DHT22;52067;50.710;14.492;2023-03-13T08:29:09;8.25;84.89
65470;DHT22;52067;50.710;14.492;2023-03-13T08:31:37;8.37;84.71
65470;DHT22;52067;50.710;14.492;2023-03-13T08:34:03;8.35;85.31
65470;DHT22;52067;50.710;14.492;2023-03-13T08:36:34;8.45;85.29
65470;DHT22;52067;50.710;14.492;2023-03-13T08:39:02;8.30;85.53
65470;DHT22;52067;50.710;14.492;2023-03-13T08:41:31;7.97;86.98
65470;DHT22;52067;50.710;14.492;2023-03-13T08:43:58;7.94;87.38
65470;DHT22;52067;50.710;14.492;2023-03-13T08:46:24;7.89;88.04
65470;DHT22;52067;50.710;14.492;2023-03-13T08:48:53;7.73;88.54
65470;DHT22;52067;50.710;14.492;2023-03-13T08:51:20;7.82;88.42
65470;DHT22;52067;50.710;14.492;2023-03-13T08:53:46;7.53;89.16
65470;DHT22;52067;50.710;14.492;2023-03-13T08:56:15;7.68;89.15
65470;DHT22;52067;50.710;14.492;2023-03-13T08:58:40;7.66;89.21
65470;DHT22;52067;50.710;14.492;2023-03-13T09:01:13;7.67;89.02
65470;DHT22;52067;50.710;14.492;2023-03-13T09:03:39;7.61;88.97
65470;DHT22;52067;50.710;14.492;2023-03-13T09:06:06;7.68;89.01
65470;DHT22;52067;50.710;14.492;2023-03-13T09:08:32;7.78;88.87
65470;DHT22;52067;50.710;14.492;2023-03-13T09:11:00;7.70;89.01
65470;DHT22;52067;50.710;14.492;2023-03-13T09:13:28;7.66;89.17
65470;DHT22;52067;50.710;14.492;2023-03-13T09:15:58;7.71;89.11
65470;DHT22;52067;50.710;14.492;2023-03-13T09:18:24;7.68;89.12
65470;DHT22;52067;50.710;14.492;2023-03-13T09:20:49;7.70;89.23
65470;DHT22;52067;50.710;14.492;2023-03-13T09:23:15;7.87;89.14
65470;DHT22;52067;50.710;14.492;2023-03-13T09:25:40;7.87;89.13
65470;DHT22;52067;50.710;14.492;2023-03-13T09:28:06;7.91;89.36
65470;DHT22;52067;50.710;14.492;2023-03-13T09:30:31;7.92;89.20
65470;DHT22;52067;50.710;14.492;2023-03-13T09:32:56;7.95;89.09
65470;DHT22;52067;50.710;14.492;2023-03-13T09:35:22;7.64;89.56
65470;DHT22;52067;50.710;14.492;2023-03-13T09:37:47;7.77;90.09
65470;DHT22;52067;50.710;14.492;2023-03-13T09:40:14;7.94;89.71
65470;DHT22;52067;50.710;14.492;2023-03-13T09:42:53;7.91;89.30
65470;DHT22;52067;50.710;14.492;2023-03-13T09:47:53;8.01;89.54
65470;DHT22;52067;50.710;14.492;2023-03-13T09:50:44;8.06;89.23
65470;DHT22;52067;50.710;14.492;2023-03-13T09:53:23;8.24;89.02
65470;DHT22;52067;50.710;14.492;2023-03-13T09:55:52;8.30;88.85
65470;DHT22;52067;50.710;14.492;2023-03-13T09:58:23;8.32;88.61
65470;DHT22;52067;50.710;14.492;2023-03-13T10:00:56;8.35;88.65
65470;DHT22;52067;50.710;14.492;2023-03-13T10:03:26;8.29;88.60
65470;DHT22;52067;50.710;14.492;2023-03-13T10:05:55;8.24;88.85
65470;DHT22;52067;50.710;14.492;2023-03-13T10:08:23;8.36;88.78
65470;DHT22;52067;50.710;14.492;2023-03-13T10:10:52;8.52;88.45
65470;DHT22;52067;50.710;14.492;2023-03-13T10:13:33;8.54;88.01
65470;DHT22;52067;50.710;14.492;2023-03-13T10:16:06;8.66;88.08
65470;DHT22;52067;50.710;14.492;2023-03-13T10:18:34;8.81;87.88
65470;DHT22;52067;50.710;14.492;2023-03-13T10:21:10;8.87;87.37
65470;DHT22;52067;50.710;14.492;2023-03-13T10:26:23;8.83;87.44
65470;DHT22;52067;50.710;14.492;2023-03-13T10:28:50;8.66;87.66
65470;DHT22;52067;50.710;14.492;2023-03-13T10:31:31;8.63;87.95
65470;DHT22;52067;50.710;14.492;2023-03-13T10:36:45;8.74;88.04
65470;DHT22;52067;50.710;14.492;2023-03-13T10:39:20;8.83;87.80
65470;DHT22;52067;50.710;14.492;2023-03-13T10:41:47;8.67;87.94
65470;DHT22;52067;50.710;14.492;2023-03-13T10:44:21;8.84;88.19
65470;DHT22;52067;50.710;14.492;2023-03-13T10:46:48;8.74;88.89
65470;DHT22;52067;50.710;14.492;2023-03-13T10:49:22;8.88;88.75
65470;DHT22;52067;50.710;14.492;2023-03-13T10:51:53;8.52;89.36
65470;DHT22;52067;50.710;14.492;2023-03-13T10:54:27;8.49;89.61
65470;DHT22;52067;50.710;14.492;2023-03-13T10:59:45;8.50;89.82
65470;DHT22;52067;50.710;14.492;2023-03-13T11:04:59;8.60;89.10
65470;DHT22;52067;50.710;14.492;2023-03-13T11:07:36;8.68;88.79
65470;DHT22;52067;50.710;14.492;2023-03-13T11:10:22;8.77;88.41
65470;DHT22;52067;50.710;14.492;2023-03-13T11:12:51;8.91;87.72
65470;DHT22;52067;50.710;14.492;2023-03-13T11:15:42;9.04;87.51
65470;DHT22;52067;50.710;14.492;2023-03-13T11:18:17;9.11;87.57
65470;DHT22;52067;50.710;14.492;2023-03-13T11:20:45;9.25;87.47
65470;DHT22;52067;50.710;14.492;2023-03-13T11:31:23;9.83;86.03
65470;DHT22;52067;50.710;14.492;2023-03-13T11:48:01;10.59;84.42
65470;DHT22;52067;50.710;14.492;2023-03-13T11:50:56;10.76;83.76
65470;DHT22;52067;50.710;14.492;2023-03-13T12:01:54;10.53;84.41
65470;DHT22;52067;50.710;14.492;2023-03-13T12:09:27;10.71;83.38
65470;DHT22;52067;50.710;14.492;2023-03-13T12:14:34;10.90;82.37
65470;DHT22;52067;50.710;14.492;2023-03-13T12:17:36;10.83;82.94
65470;DHT22;52067;50.710;14.492;2023-03-13T12:20:25;10.93;82.74
65470;DHT22;52067;50.710;14.492;2023-03-13T12:23:17;10.90;83.33
65470;DHT22;52067;50.710;14.492;2023-03-13T12:25:51;10.95;82.99
65470;DHT22;52067;50.710;14.492;2023-03-13T12:31:12;10.52;84.79
65470;DHT22;52067;50.710;14.492;2023-03-13T12:33:51;10.55;86.29
65470;DHT22;52067;50.710;14.492;2023-03-13T12:39:16;10.25;86.91
65470;DHT22;52067;50.710;14.492;2023-03-13T12:44:32;10.25;87.18
65470;DHT22;52067;50.710;14.492;2023-03-13T12:55:19;10.24;87.14
65470;DHT22;52067;50.710;14.492;2023-03-13T13:00:27;10.37;86.99
65470;DHT22;52067;50.710;14.492;2023-03-13T13:03:28;10.20;87.84
65470;DHT22;52067;50.710;14.492;2023-03-13T13:06:13;10.15;87.89
65470;DHT22;52067;50.710;14.492;2023-03-13T13:09:05;10.28;87.89
65470;DHT22;52067;50.710;14.492;2023-03-13T13:16:49;10.01;88.08
65470;DHT22;52067;50.710;14.492;2023-03-13T13:24:52;9.89;87.93
65470;DHT22;52067;50.710;14.492;2023-03-13T13:32:41;10.14;87.68
65470;DHT22;52067;50.710;14.492;2023-03-13T13:37:49;10.28;87.16
65470;DHT22;52067;50.710;14.492;2023-03-13T13:42:56;10.93;85.94
65470;DHT22;52067;50.710;14.492;2023-03-13T13:46:14;11.26;86.22
65470;DHT22;52067;50.710;14.492;2023-03-13T13:48:28;11.32;85.09
65470;DHT22;52067;50.710;14.492;2023-03-13T13:53:58;12.94;80.27
65470;DHT22;52067;50.710;14.492;2023-03-13T14:01:27;13.69;77.71
65470;DHT22;52067;50.710;14.492;2023-03-13T14:04:09;13.60;78.48
65470;DHT22;52067;50.710;14.492;2023-03-13T14:06:37;13.94;77.46
65470;DHT22;52067;50.710;14.492;2023-03-13T14:09:33;14.12;76.74
65470;DHT22;52067;50.710;14.492;2023-03-13T14:12:01;13.39;79.14
65470;DHT22;52067;50.710;14.492;2023-03-13T14:14:26;14.21;76.97
65470;DHT22;52067;50.710;14.492;2023-03-13T14:16:53;14.69;73.75
65470;DHT22;52067;50.710;14.492;2023-03-13T14:19:32;15.35;72.15
65470;DHT22;52067;50.710;14.492;2023-03-13T14:22:12;15.37;71.30
65470;DHT22;52067;50.710;14.492;2023-03-13T14:24:38;16.61;67.66
65470;DHT22;52067;50.710;14.492;2023-03-13T14:27:15;16.41;65.47
65470;DHT22;52067;50.710;14.492;2023-03-13T14:29:40;16.45;66.06
65470;DHT22;52067;50.710;14.492;2023-03-13T14:32:06;16.72;64.70
65470;DHT22;52067;50.710;14.492;2023-03-13T14:34:31;17.01;64.47
65470;DHT22;52067;50.710;14.492;2023-03-13T14:36:59;17.32;63.28
65470;DHT22;52067;50.710;14.492;2023-03-13T14:39:42;16.63;63.94
65470;DHT22;52067;50.710;14.492;2023-03-13T14:42:15;16.40;64.90
65470;DHT22;52067;50.710;14.492;2023-03-13T14:44:43;15.97;65.90
65470;DHT22;52067;50.710;14.492;2023-03-13T14:47:22;15.69;67.59
65470;DHT22;52067;50.710;14.492;2023-03-13T14:50:01;16.31;66.01
65470;DHT22;52067;50.710;14.492;2023-03-13T14:52:30;16.34;64.65
65470;DHT22;52067;50.710;14.492;2023-03-13T14:55:01;16.53;64.35
65470;DHT22;52067;50.710;14.492;2023-03-13T14:57:29;16.85;63.54
65470;DHT22;52067;50.710;14.492;2023-03-13T15:00:31;15.72;66.45
65470;DHT22;52067;50.710;14.492;2023-03-13T15:08:35;16.37;65.54
65470;DHT22;52067;50.710;14.492;2023-03-13T15:11:01;16.60;64.25
65470;DHT22;52067;50.710;14.492;2023-03-13T15:13:36;15.99;66.56
65470;DHT22;52067;50.710;14.492;2023-03-13T15:16:13;15.73;67.57
65470;DHT22;52067;50.710;14.492;2023-03-13T15:18:38;16.18;66.02
65470;DHT22;52067;50.710;14.492;2023-03-13T15:23:39;15.86;65.78
65470;DHT22;52067;50.710;14.492;2023-03-13T15:26:05;15.79;67.15
65470;DHT22;52067;50.710;14.492;2023-03-13T15:28:31;15.23;67.73
65470;DHT22;52067;50.710;14.492;2023-03-13T15:30:58;14.86;69.77
65470;DHT22;52067;50.710;14.492;2023-03-13T15:33:26;14.84;69.97
65470;DHT22;52067;50.710;14.492;2023-03-13T15:35:53;14.58;70.99
65470;DHT22;52067;50.710;14.492;2023-03-13T15:38:22;14.26;71.49
65470;DHT22;52067;50.710;14.492;2023-03-13T15:40:48;14.08;72.21
65470;DHT22;52067;50.710;14.492;2023-03-13T15:43:14;14.04;72.79
65470;DHT22;52067;50.710;14.492;2023-03-13T15:45:42;13.81;73.61
65470;DHT22;52067;50.710;14.492;2023-03-13T15:48:17;13.80;73.01
65470;DHT22;52067;50.710;14.492;2023-03-13T15:50:45;13.84;72.99
65470;DHT22;52067;50.710;14.492;2023-03-13T15:53:32;13.77;74.26
65470;DHT22;52067;50.710;14.492;2023-03-13T15:55:59;13.70;73.90
65470;DHT22;52067;50.710;14.492;2023-03-13T15:58:26;13.59;74.47
65470;DHT22;52067;50.710;14.492;2023-03-13T16:00:53;13.49;75.35
65470;DHT22;52067;50.710;14.492;2023-03-13T16:03:21;13.39;75.50
65470;DHT22;52067;50.710;14.492;2023-03-13T16:05:47;13.39;75.35
65470;DHT22;52067;50.710;14.492;2023-03-13T16:08:21;13.39;74.13
65470;DHT22;52067;50.710;14.492;2023-03-13T16:10:48;13.32;75.27
65470;DHT22;52067;50.710;14.492;2023-03-13T16:13:14;13.26;75.46
65470;DHT22;52067;50.710;14.492;2023-03-13T16:15:39;13.30;74.72
65470;DHT22;52067;50.710;14.492;2023-03-13T16:18:05;13.32;74.53
65470;DHT22;52067;50.710;14.492;2023-03-13T16:20:33;13.23;75.41
65470;DHT22;52067;50.710;14.492;2023-03-13T16:22:59;13.35;74.71
65470;DHT22;52067;50.710;14.492;2023-03-13T16:25:29;13.35;74.85
65470;DHT22;52067;50.710;14.492;2023-03-13T16:27:55;13.19;75.12
65470;DHT22;52067;50.710;14.492;2023-03-13T16:30:26;13.25;75.23
65470;DHT22;52067;50.710;14.492;2023-03-13T16:32:52;13.23;75.55
65470;DHT22;52067;50.710;14.492;2023-03-13T16:35:17;13.12;75.41
65470;DHT22;52067;50.710;14.492;2023-03-13T16:37:43;12.96;75.87
65470;DHT22;52067;50.710;14.492;2023-03-13T16:40:21;12.75;76.82
65470;DHT22;52067;50.710;14.492;2023-03-13T16:42:47;12.60;77.33
65470;DHT22;52067;50.710;14.492;2023-03-13T16:45:13;12.61;77.64
65470;DHT22;52067;50.710;14.492;2023-03-13T16:47:39;12.48;77.84
65470;DHT22;52067;50.710;14.492;2023-03-13T16:52:55;12.36;78.08
65470;DHT22;52067;50.710;14.492;2023-03-13T16:55:22;12.38;78.20
65470;DHT22;52067;50.710;14.492;2023-03-13T16:57:52;12.38;78.14
65470;DHT22;52067;50.710;14.492;2023-03-13T17:00:20;12.43;78.04
65470;DHT22;52067;50.710;14.492;2023-03-13T17:02:46;12.37;78.14
65470;DHT22;52067;50.710;14.492;2023-03-13T17:05:12;12.37;77.98
65470;DHT22;52067;50.710;14.492;2023-03-13T17:07:44;12.38;77.84
65470;DHT22;52067;50.710;14.492;2023-03-13T17:10:15;12.43;77.80
65470;DHT22;52067;50.710;14.492;2023-03-13T17:12:42;12.32;78.11
65470;DHT22;52067;50.710;14.492;2023-03-13T17:15:07;12.07;79.02
65470;DHT22;52067;50.710;14.492;2023-03-13T17:17:33;11.98;79.26
65470;DHT22;52067;50.710;14.492;2023-03-13T17:19:58;12.03;79.31
65470;DHT22;52067;50.710;14.492;2023-03-13T17:22:24;12.00;79.36
65470;DHT22;52067;50.710;14.492;2023-03-13T17:24:49;11.88;79.77
65470;DHT22;52067;50.710;14.492;2023-03-13T17:27:16;11.72;80.28
65470;DHT22;52067;50.710;14.492;2023-03-13T17:29:42;11.62;80.58
65470;DHT22;52067;50.710;14.492;2023-03-13T17:32:12;11.62;80.61
65470;DHT22;52067;50.710;14.492;2023-03-13T17:34:38;11.62;80.31
65470;DHT22;52067;50.710;14.492;2023-03-13T17:37:15;11.51;80.96
65470;DHT22;52067;50.710;14.492;2023-03-13T17:39:42;11.50;80.89